createdAt,value
2022-10-23T00:02:50.554Z,45.55
2022-10-23T00:06:25.546Z,48.73
2022-10-23T00:09:48.507Z,47.93
2022-10-23T00:13:11.474Z,47.33
2022-10-23T00:16:33.492Z,50.53
2022-10-23T00:19:50.727Z,49.58
2022-10-23T00:23:04.334Z,45.23
2022-10-23T00:26:24.072Z,45.37
2022-10-23T00:29:52.478Z,43.38
2022-10-23T00:33:23.595Z,39.22
2022-10-23T00:36:46.450Z,42.10
2022-10-23T00:40:02.539Z,40.40
2022-10-23T00:43:21.815Z,41.60
2022-10-23T00:46:39.505Z,42.70
2022-10-23T00:50:07.483Z,44.33
2022-10-23T00:53:32.396Z,43.92
2022-10-23T00:56:54.466Z,44.03
2022-10-23T01:00:11.453Z,45.53
2022-10-23T01:03:35.354Z,44.97
2022-10-23T01:07:18.779Z,40.67
2022-10-23T01:10:44.902Z,44.58
2022-10-23T01:14:00.596Z,43.77
2022-10-23T01:17:17.751Z,43.80
2022-10-23T01:20:45.645Z,45.35
2022-10-23T01:24:26.742Z,49.90
2022-10-23T01:27:35.301Z,50.03
2022-10-23T01:30:44.792Z,49.50
2022-10-23T01:33:59.280Z,46.70
2022-10-23T01:37:07.717Z,41.97
2022-10-23T01:40:32.541Z,39.72
2022-10-23T01:43:52.483Z,44.88
2022-10-23T01:47:03.895Z,42.23
2022-10-23T01:50:13.371Z,46.77
2022-10-23T01:53:33.548Z,46.28
2022-10-23T01:56:58.048Z,50.83
2022-10-23T02:00:13.126Z,44.42
2022-10-23T02:03:42.468Z,46.60
2022-10-23T02:07:03.244Z,47.67
2022-10-23T02:10:26.202Z,44.97
2022-10-23T02:13:48.428Z,76.97
2022-10-23T02:17:42.640Z,47.63
2022-10-23T02:21:00.970Z,46.53
2022-10-23T02:24:16.154Z,48.23
2022-10-23T02:27:48.539Z,44.53
2022-10-23T02:30:58.431Z,45.50
2022-10-23T02:34:06.720Z,49.65
2022-10-23T02:37:26.306Z,52.23
2022-10-23T02:40:48.552Z,45.10
2022-10-23T02:44:38.717Z,44.25
2022-10-23T02:48:33.870Z,46.40
2022-10-23T02:51:43.255Z,47.03
2022-10-23T02:55:11.029Z,42.37
2022-10-23T02:59:17.374Z,43.20
2022-10-23T03:02:40.461Z,46.03
2022-10-23T03:06:07.283Z,44.78
2022-10-23T03:09:22.476Z,44.15
2022-10-23T03:12:40.480Z,43.60
2022-10-23T03:16:10.627Z,42.73
2022-10-23T03:19:21.590Z,45.83
2022-10-23T03:22:46.414Z,44.80
2022-10-23T03:26:10.186Z,42.72
2022-10-23T03:29:28.258Z,44.30
2022-10-23T03:32:50.134Z,45.47
2022-10-23T03:36:14.181Z,44.95
2022-10-23T03:39:39.160Z,46.65
2022-10-23T03:42:53.131Z,43.63
2022-10-23T03:46:02.283Z,43.37
2022-10-23T03:49:19.090Z,43.70
2022-10-23T03:52:29.826Z,45.30
2022-10-23T03:55:50.881Z,46.60
2022-10-23T03:59:03.187Z,44.42
2022-10-23T04:02:27.991Z,48.07
2022-10-23T04:05:58.506Z,50.60
2022-10-23T04:09:21.940Z,47.13
2022-10-23T04:12:25.361Z,44.83
2022-10-23T04:15:29.863Z,42.80
2022-10-23T04:18:43.527Z,43.80
2022-10-23T04:22:02.352Z,49.87
2022-10-23T04:25:24.868Z,56.40
2022-10-23T04:28:42.456Z,71.57
2022-10-23T04:32:06.944Z,56.75
2022-10-23T04:35:25.900Z,54.80
2022-10-23T04:38:52.864Z,55.23
2022-10-23T04:42:08.401Z,56.55
2022-10-23T04:45:24.357Z,55.88
2022-10-23T04:48:41.222Z,49.85
2022-10-23T04:52:22.818Z,46.53
2022-10-23T04:56:10.954Z,45.23
2022-10-23T04:59:45.987Z,44.33
2022-10-23T05:03:19.180Z,43.72
2022-10-23T05:06:44.194Z,52.67
2022-10-23T05:10:09.965Z,51.03
2022-10-23T05:13:27.908Z,47.50
2022-10-23T05:16:51.039Z,45.65
2022-10-23T05:19:56.816Z,48.17
2022-10-23T05:23:10.091Z,45.95
2022-10-23T05:26:18.031Z,49.37
2022-10-23T05:29:34.786Z,43.93
2022-10-23T05:32:45.635Z,42.05
2022-10-23T05:36:03.986Z,49.85
2022-10-23T05:39:31.732Z,46.42
2022-10-23T05:42:56.569Z,45.87
2022-10-23T05:46:23.490Z,53.80
2022-10-23T05:49:55.160Z,54.63
2022-10-23T05:53:09.518Z,49.20
2022-10-23T05:56:39.048Z,51.40
2022-10-23T05:59:45.845Z,54.33
2022-10-23T06:03:19.903Z,39.83
2022-10-23T06:06:35.494Z,44.72
2022-10-23T06:09:53.024Z,44.13
2022-10-23T06:13:07.367Z,41.15
2022-10-23T06:16:33.674Z,43.57
2022-10-23T06:20:07.706Z,41.83
2022-10-23T06:23:17.481Z,43.08
2022-10-23T06:26:49.709Z,45.75
2022-10-23T06:30:10.668Z,53.20
2022-10-23T06:33:34.617Z,50.97
2022-10-23T06:36:56.164Z,49.60
2022-10-23T06:40:16.521Z,42.35
2022-10-23T06:43:43.826Z,49.70
2022-10-23T06:47:03.906Z,48.50
2022-10-23T06:50:40.519Z,44.03
2022-10-23T06:53:50.389Z,42.03
2022-10-23T06:57:19.638Z,43.45
2022-10-23T07:00:34.856Z,47.13
2022-10-23T07:03:55.746Z,46.63
2022-10-23T07:07:21.665Z,47.87
2022-10-23T07:10:26.514Z,46.37
2022-10-23T07:13:42.663Z,43.53
2022-10-23T07:16:51.935Z,42.05
2022-10-23T07:19:56.709Z,40.60
2022-10-23T07:23:11.772Z,34.10
2022-10-23T07:26:27.727Z,39.03
2022-10-23T07:29:43.942Z,37.92
2022-10-23T07:32:47.466Z,38.83
2022-10-23T07:36:11.280Z,40.83
2022-10-23T07:39:15.639Z,34.83
2022-10-23T07:42:45.699Z,34.27
2022-10-23T07:46:03.103Z,36.40
2022-10-23T07:49:23.743Z,31.08
2022-10-23T07:52:39.720Z,32.97
2022-10-23T07:55:59.935Z,31.63
2022-10-23T07:59:37.150Z,32.87
2022-10-23T08:02:49.098Z,30.13
2022-10-23T08:06:10.673Z,28.80
2022-10-23T08:09:13.795Z,30.63
2022-10-23T08:12:22.844Z,29.47
2022-10-23T08:15:37.188Z,30.90
2022-10-23T08:18:56.155Z,30.85
2022-10-23T08:22:12.393Z,31.48
2022-10-23T08:25:28.883Z,29.90
2022-10-23T08:28:44.337Z,30.77
2022-10-23T08:32:06.730Z,29.20
2022-10-23T08:35:44.271Z,28.08
2022-10-23T08:39:15.055Z,29.75
2022-10-23T08:42:41.633Z,29.27
2022-10-23T08:45:59.402Z,28.53
2022-10-23T08:50:00.972Z,26.27
2022-10-23T08:53:11.362Z,24.98
2022-10-23T08:56:27.344Z,24.10
2022-10-23T08:59:40.342Z,23.50
2022-10-23T09:02:56.435Z,23.07
2022-10-23T09:06:25.818Z,22.27
2022-10-23T09:09:58.501Z,22.90
2022-10-23T09:13:36.155Z,21.40
2022-10-23T09:20:32.172Z,21.30
2022-10-23T09:23:48.756Z,22.60
2022-10-23T09:27:19.264Z,20.85
2022-10-23T09:30:42.839Z,21.83
2022-10-23T09:34:06.448Z,18.63
2022-10-23T09:37:28.207Z,18.67
2022-10-23T09:40:49.906Z,21.27
2022-10-23T09:44:44.075Z,17.35
2022-10-23T09:48:28.356Z,17.75
2022-10-23T09:51:45.358Z,17.98
2022-10-23T09:55:06.262Z,18.63
2022-10-23T09:58:28.519Z,17.83
2022-10-23T10:01:45.606Z,21.48
2022-10-23T10:05:38.847Z,17.48
2022-10-23T10:08:51.131Z,16.67
2022-10-23T10:12:47.206Z,17.30
2022-10-23T10:16:08.979Z,19.03
2022-10-23T10:19:39.099Z,16.67
2022-10-23T10:22:53.027Z,16.42
2022-10-23T10:26:31.277Z,16.13
2022-10-23T10:29:50.957Z,15.67
2022-10-23T10:33:36.699Z,18.30
2022-10-23T10:37:21.441Z,17.83
2022-10-23T10:40:41.548Z,18.13
2022-10-23T10:44:23.505Z,18.38
2022-10-23T10:48:08.042Z,21.17
2022-10-23T10:52:05.060Z,23.37
2022-10-23T10:55:22.136Z,22.50
2022-10-23T10:58:42.700Z,20.65
2022-10-23T11:02:04.343Z,19.10
2022-10-23T11:05:43.177Z,22.67
2022-10-23T11:08:57.924Z,18.80
2022-10-23T11:12:25.530Z,21.60
2022-10-23T11:15:41.357Z,20.55
2022-10-23T11:19:01.101Z,21.00
2022-10-23T11:22:17.543Z,20.73
2022-10-23T11:25:59.692Z,23.43
2022-10-23T11:30:01.848Z,24.10
2022-10-23T11:33:44.730Z,24.92
2022-10-23T11:37:05.283Z,25.98
2022-10-23T11:40:25.974Z,25.47
2022-10-23T11:43:55.920Z,25.77
2022-10-23T11:47:35.042Z,25.88
2022-10-23T11:50:55.149Z,26.40
2022-10-23T11:54:24.106Z,28.02
2022-10-23T11:58:20.549Z,22.53
2022-10-23T12:01:40.912Z,21.83
2022-10-23T12:04:53.617Z,18.80
2022-10-23T12:08:18.449Z,17.10
2022-10-23T12:11:46.829Z,19.27
2022-10-23T12:15:14.739Z,17.67
2022-10-23T12:18:22.345Z,16.83
2022-10-23T12:21:41.810Z,16.38
2022-10-23T12:25:17.653Z,15.80
2022-10-23T12:28:40.609Z,17.45
2022-10-23T12:32:06.014Z,21.57
2022-10-23T12:36:08.121Z,22.00
2022-10-23T12:39:49.073Z,23.38
2022-10-23T12:43:44.981Z,24.40
2022-10-23T12:46:57.702Z,23.85
2022-10-23T12:50:24.615Z,21.67
2022-10-23T12:53:40.611Z,19.67
2022-10-23T12:56:58.006Z,17.95
2022-10-23T13:00:15.611Z,15.45
2022-10-23T13:03:25.304Z,17.02
2022-10-23T13:06:31.734Z,18.30
2022-10-23T13:09:44.201Z,18.40
2022-10-23T13:13:17.696Z,19.05
2022-10-23T13:16:26.632Z,17.35
2022-10-23T13:19:37.308Z,17.55
2022-10-23T13:23:00.633Z,16.73
2022-10-23T13:26:21.601Z,16.23
2022-10-23T13:29:33.852Z,14.88
2022-10-23T13:32:38.426Z,16.85
2022-10-23T13:36:13.581Z,17.05
2022-10-23T13:39:28.474Z,14.53
2022-10-23T13:42:32.297Z,14.57
2022-10-23T13:45:50.912Z,13.65
2022-10-23T13:49:15.596Z,14.27
2022-10-23T13:52:40.667Z,18.30
2022-10-23T13:55:54.949Z,20.53
2022-10-23T13:59:03.817Z,16.43
2022-10-23T14:02:26.559Z,15.05
2022-10-23T14:05:42.965Z,15.98
2022-10-23T14:09:05.657Z,15.38
2022-10-23T14:12:42.321Z,18.57
2022-10-23T14:15:54.565Z,25.87
2022-10-23T14:19:17.568Z,18.48
2022-10-23T14:22:49.692Z,64.45
2022-10-23T14:26:07.720Z,14.60
2022-10-23T14:29:21.397Z,14.37
2022-10-23T14:32:37.489Z,15.93
2022-10-23T14:36:43.282Z,14.23
2022-10-23T14:40:35.761Z,20.13
2022-10-23T14:43:58.402Z,15.57
2022-10-23T14:47:19.172Z,14.63
2022-10-23T14:50:42.141Z,15.37
2022-10-23T14:54:05.342Z,15.02
2022-10-23T14:57:16.827Z,14.60
2022-10-23T15:00:39.341Z,16.38
2022-10-23T15:04:10.376Z,13.67
2022-10-23T15:07:31.440Z,16.53
2022-10-23T15:10:45.989Z,16.13
2022-10-23T15:13:49.607Z,17.38
2022-10-23T15:16:53.191Z,16.60
2022-10-23T15:20:00.921Z,53.40
2022-10-23T15:23:21.692Z,16.37
2022-10-23T15:26:27.969Z,16.05
2022-10-23T15:29:51.472Z,19.25
2022-10-23T15:32:55.832Z,15.48
2022-10-23T15:36:05.908Z,15.93
2022-10-23T15:39:32.484Z,19.77
2022-10-23T15:42:55.450Z,16.73
2022-10-23T15:46:17.261Z,15.10
2022-10-23T15:49:40.467Z,17.02
2022-10-23T15:53:02.500Z,15.47
2022-10-23T15:56:24.337Z,16.67
2022-10-23T15:59:31.824Z,22.83
2022-10-23T16:02:58.292Z,17.88
2022-10-23T16:06:29.599Z,14.77
2022-10-23T16:09:55.334Z,18.03
2022-10-23T16:12:58.594Z,19.70
2022-10-23T16:16:22.223Z,17.67
2022-10-23T16:20:01.307Z,17.90
2022-10-23T16:23:24.582Z,16.65
2022-10-23T16:26:36.203Z,16.87
2022-10-23T16:29:53.336Z,17.50
2022-10-23T16:33:21.343Z,17.35
2022-10-23T16:36:29.518Z,14.70
2022-10-23T16:40:05.216Z,15.77
2022-10-23T16:43:41.598Z,15.50
2022-10-23T16:47:07.296Z,9.73
2022-10-23T16:50:15.699Z,9.98
2022-10-23T16:53:37.459Z,9.18
2022-10-23T16:56:54.477Z,10.45
2022-10-23T17:00:16.202Z,9.60
2022-10-23T17:03:20.571Z,9.27
2022-10-23T17:06:31.549Z,7.35
2022-10-23T17:09:47.091Z,8.43
2022-10-23T17:12:59.881Z,7.75
2022-10-23T17:16:33.239Z,8.33
2022-10-23T17:19:53.894Z,9.33
2022-10-23T17:22:57.026Z,11.65
2022-10-23T17:26:20.034Z,6.22
2022-10-23T17:29:44.328Z,7.45
2022-10-23T17:33:07.959Z,5.90
2022-10-23T17:36:44.904Z,7.83
2022-10-23T17:39:56.353Z,7.85
2022-10-23T17:43:16.261Z,5.55
2022-10-23T17:46:21.163Z,5.43
2022-10-23T17:49:29.762Z,4.83
2022-10-23T17:52:53.995Z,5.70
2022-10-23T17:56:05.110Z,5.43
2022-10-23T17:59:14.930Z,5.60
2022-10-23T18:02:18.522Z,5.20
2022-10-23T18:05:31.962Z,8.77
2022-10-23T18:08:49.882Z,5.70
2022-10-23T18:11:53.158Z,6.65
2022-10-23T18:14:57.826Z,6.32
2022-10-23T18:18:07.869Z,5.90
2022-10-23T18:21:21.473Z,6.03
2022-10-23T18:24:44.908Z,5.50
2022-10-23T18:28:02.536Z,6.65
2022-10-23T18:31:14.242Z,5.78
2022-10-23T18:34:22.884Z,6.93
2022-10-23T18:37:35.524Z,6.67
2022-10-23T18:40:44.639Z,6.97
2022-10-23T18:44:03.245Z,6.45
2022-10-23T18:47:27.418Z,7.30
2022-10-23T18:50:48.890Z,8.63
2022-10-23T18:54:07.369Z,6.90
2022-10-23T18:57:23.955Z,7.93
2022-10-23T19:00:48.026Z,8.20
2022-10-23T19:04:10.912Z,8.30
2022-10-23T19:07:14.236Z,9.43
2022-10-23T19:10:22.142Z,8.53
2022-10-23T19:13:39.123Z,8.40
2022-10-23T19:17:32.969Z,9.70
2022-10-23T19:20:50.298Z,9.45
2022-10-23T19:24:02.121Z,8.55
2022-10-23T19:27:06.634Z,10.73
2022-10-23T19:30:25.808Z,9.80
2022-10-23T19:33:48.452Z,10.70
2022-10-23T19:36:53.791Z,10.02
2022-10-23T19:39:57.634Z,9.70
2022-10-23T19:43:08.689Z,9.97
2022-10-23T19:46:19.060Z,11.60
2022-10-23T19:49:23.976Z,9.60
2022-10-23T19:52:32.327Z,9.75
2022-10-23T19:55:43.661Z,12.52
2022-10-23T19:58:47.750Z,10.13
2022-10-23T20:02:10.869Z,10.77
2022-10-23T20:05:47.870Z,11.52
2022-10-23T20:09:13.932Z,10.85
2022-10-23T20:12:29.497Z,11.60
2022-10-23T20:15:53.789Z,12.83
2022-10-23T20:19:10.794Z,13.30
2022-10-23T20:22:34.590Z,12.48
2022-10-23T20:26:05.585Z,12.25
2022-10-23T20:29:22.727Z,12.68
2022-10-23T20:32:43.966Z,12.23
2022-10-23T20:36:07.689Z,11.90
2022-10-23T20:39:25.579Z,13.43
2022-10-23T20:42:48.805Z,12.13
2022-10-23T20:46:20.504Z,13.10
2022-10-23T20:49:43.063Z,15.83
2022-10-23T20:53:05.635Z,13.63
2022-10-23T20:56:33.544Z,13.63
2022-10-23T20:59:50.597Z,11.15
2022-10-23T21:03:06.860Z,11.43
2022-10-23T21:06:27.786Z,13.20
2022-10-23T21:09:51.673Z,13.40
2022-10-23T21:12:57.547Z,12.73
2022-10-23T21:16:26.228Z,12.35
2022-10-23T21:19:53.553Z,12.70
2022-10-23T21:23:17.768Z,13.87
2022-10-23T21:26:39.698Z,14.00
2022-10-23T21:29:59.584Z,13.93
2022-10-23T21:33:02.756Z,13.35
2022-10-23T21:36:15.389Z,13.07
2022-10-23T21:39:28.635Z,15.67
2022-10-23T21:42:50.316Z,14.57
2022-10-23T21:46:11.725Z,14.75
2022-10-23T21:49:34.442Z,14.13
2022-10-23T21:52:58.320Z,12.60
2022-10-23T21:56:35.554Z,14.30
2022-10-23T21:59:49.472Z,13.57
2022-10-23T22:03:06.414Z,16.10
2022-10-23T22:06:30.159Z,14.75
2022-10-23T22:09:47.439Z,14.85
2022-10-23T22:13:01.284Z,13.50
2022-10-23T22:16:20.963Z,15.30
2022-10-23T22:19:36.647Z,15.23
2022-10-23T22:22:40.331Z,14.05
2022-10-23T22:25:51.129Z,14.40
2022-10-23T22:29:13.849Z,15.93
2022-10-23T22:32:29.617Z,15.43
2022-10-23T22:35:35.828Z,16.15
2022-10-23T22:38:46.111Z,16.98
2022-10-23T22:41:53.797Z,16.38
2022-10-23T22:44:57.405Z,18.27
2022-10-23T22:48:00.124Z,19.77
2022-10-23T22:51:16.923Z,17.05
2022-10-23T22:54:42.322Z,18.90
2022-10-23T22:57:51.780Z,19.30
2022-10-23T23:01:19.054Z,17.67
2022-10-23T23:04:38.706Z,20.43
2022-10-23T23:08:03.319Z,21.23
2022-10-23T23:11:31.344Z,19.38
2022-10-23T23:14:54.085Z,19.65
2022-10-23T23:17:57.246Z,21.03
2022-10-23T23:21:05.631Z,19.17
2022-10-23T23:24:11.697Z,20.55
2022-10-23T23:27:16.794Z,18.95
2022-10-23T23:30:32.332Z,20.73
2022-10-23T23:33:38.794Z,18.27
2022-10-23T23:36:42.441Z,20.07
2022-10-23T23:39:51.820Z,18.98
2022-10-23T23:43:03.003Z,20.95
2022-10-23T23:46:09.905Z,22.02
2022-10-23T23:49:16.652Z,19.40
2022-10-23T23:52:19.902Z,22.77
2022-10-23T23:55:23.482Z,21.42
2022-10-23T23:58:37.962Z,25.23
